sensor_id;sensor_type;location;lat;lon;timestamp;pressure;altitude;pressure_sealevel;temperature;humidity
36378;BME280;22402;42.746;23.606;2024-03-07T00:00:05;93255.91;;;6.90;100.00
36378;BME280;22402;42.746;23.606;2024-03-07T00:02:45;93258.75;;;6.87;100.00
36378;BME280;22402;42.746;23.606;2024-03-07T00:05:16;93245.66;;;6.89;100.00
36378;BME280;22402;42.746;23.606;2024-03-07T00:07:44;93247.28;;;6.90;100.00
36378;BME280;22402;42.746;23.606;2024-03-07T00:10:10;93242.50;;;6.85;100.00
36378;BME280;22402;42.746;23.606;2024-03-07T00:12:38;93246.28;;;6.81;100.00
36378;BME280;22402;42.746;23.606;2024-03-07T00:15:09;93243.84;;;6.79;100.00
36378;BME280;22402;42.746;23.606;2024-03-07T00:17:39;93235.34;;;6.77;100.00
36378;BME280;22402;42.746;23.606;2024-03-07T00:20:05;93243.53;;;6.73;100.00
36378;BME280;22402;42.746;23.606;2024-03-07T00:22:37;93252.22;;;6.72;100.00
36378;BME280;22402;42.746;23.606;2024-03-07T00:25:03;93246.47;;;6.68;100.00
36378;BME280;22402;42.746;23.606;2024-03-07T00:27:32;93242.38;;;6.66;100.00
36378;BME280;22402;42.746;23.606;2024-03-07T00:30:02;93239.91;;;6.64;100.00
36378;BME280;22402;42.746;23.606;2024-03-07T00:32:30;93243.44;;;6.63;100.00
36378;BME280;22402;42.746;23.606;2024-03-07T00:35:02;93243.00;;;6.58;100.00
36378;BME280;22402;42.746;23.606;2024-03-07T00:37:30;93247.13;;;6.60;100.00
36378;BME280;22402;42.746;23.606;2024-03-07T00:39:56;93244.78;;;6.57;100.00
36378;BME280;22402;42.746;23.606;2024-03-07T00:42:23;93243.25;;;6.55;100.00
36378;BME280;22402;42.746;23.606;2024-03-07T00:44:52;93241.47;;;6.55;100.00
36378;BME280;22402;42.746;23.606;2024-03-07T00:47:18;93245.97;;;6.53;100.00
36378;BME280;22402;42.746;23.606;2024-03-07T00:49:44;93241.16;;;6.49;100.00
36378;BME280;22402;42.746;23.606;2024-03-07T00:52:11;93236.00;;;6.49;100.00
36378;BME280;22402;42.746;23.606;2024-03-07T00:54:37;93233.25;;;6.50;100.00
36378;BME280;22402;42.746;23.606;2024-03-07T00:57:02;93238.13;;;6.44;100.00
36378;BME280;22402;42.746;23.606;2024-03-07T00:59:29;93237.97;;;6.45;100.00
36378;BME280;22402;42.746;23.606;2024-03-07T01:01:54;93236.34;;;6.44;100.00
36378;BME280;22402;42.746;23.606;2024-03-07T01:04:23;93243.41;;;6.42;100.00
36378;BME280;22402;42.746;23.606;2024-03-07T01:06:56;93237.41;;;6.42;100.00
36378;BME280;22402;42.746;23.606;2024-03-07T01:09:21;93233.91;;;6.43;100.00
36378;BME280;22402;42.746;23.606;2024-03-07T01:11:50;93234.00;;;6.41;100.00
36378;BME280;22402;42.746;23.606;2024-03-07T01:14:15;93232.38;;;6.40;100.00
36378;BME280;22402;42.746;23.606;2024-03-07T01:16:41;93238.47;;;6.39;100.00
36378;BME280;22402;42.746;23.606;2024-03-07T01:19:08;93230.72;;;6.39;100.00
36378;BME280;22402;42.746;23.606;2024-03-07T01:21:35;93224.59;;;6.40;100.00
36378;BME280;22402;42.746;23.606;2024-03-07T01:24:01;93226.25;;;6.41;100.00
36378;BME280;22402;42.746;23.606;2024-03-07T01:26:34;93224.84;;;6.37;100.00
36378;BME280;22402;42.746;23.606;2024-03-07T01:29:01;93236.13;;;6.36;100.00
36378;BME280;22402;42.746;23.606;2024-03-07T01:31:26;93232.88;;;6.34;100.00
36378;BME280;22402;42.746;23.606;2024-03-07T01:33:53;93227.09;;;6.30;100.00
36378;BME280;22402;42.746;23.606;2024-03-07T01:36:19;93224.66;;;6.29;100.00
36378;BME280;22402;42.746;23.606;2024-03-07T01:38:46;93226.44;;;6.28;100.00
36378;BME280;22402;42.746;23.606;2024-03-07T01:41:11;93228.88;;;6.30;100.00
36378;BME280;22402;42.746;23.606;2024-03-07T01:43:37;93222.06;;;6.29;100.00
36378;BME280;22402;42.746;23.606;2024-03-07T01:46:03;93227.34;;;6.27;100.00
36378;BME280;22402;42.746;23.606;2024-03-07T01:48:37;93230.06;;;6.26;100.00
36378;BME280;22402;42.746;23.606;2024-03-07T01:51:03;93222.16;;;6.27;100.00
36378;BME280;22402;42.746;23.606;2024-03-07T01:53:32;93226.28;;;6.30;100.00
36378;BME280;22402;42.746;23.606;2024-03-07T01:55:59;93223.03;;;6.28;100.00
36378;BME280;22402;42.746;23.606;2024-03-07T01:58:24;93224.91;;;6.26;100.00
36378;BME280;22402;42.746;23.606;2024-03-07T02:00:50;93217.13;;;6.26;100.00
36378;BME280;22402;42.746;23.606;2024-03-07T02:03:16;93208.53;;;6.25;100.00
36378;BME280;22402;42.746;23.606;2024-03-07T02:05:42;93206.06;;;6.24;100.00
36378;BME280;22402;42.746;23.606;2024-03-07T02:08:07;93213.72;;;6.25;100.00
36378;BME280;22402;42.746;23.606;2024-03-07T02:10:36;93204.44;;;6.23;100.00
36378;BME280;22402;42.746;23.606;2024-03-07T02:13:04;93205.97;;;6.25;100.00
36378;BME280;22402;42.746;23.606;2024-03-07T02:15:30;93197.38;;;6.25;100.00
36378;BME280;22402;42.746;23.606;2024-03-07T02:17:57;93206.31;;;6.21;100.00
36378;BME280;22402;42.746;23.606;2024-03-07T02:20:24;93205.50;;;6.20;100.00
36378;BME280;22402;42.746;23.606;2024-03-07T02:22:49;93199.50;;;6.20;100.00
36378;BME280;22402;42.746;23.606;2024-03-07T02:25:18;93216.81;;;6.19;100.00
36378;BME280;22402;42.746;23.606;2024-03-07T02:27:43;93215.97;;;6.19;100.00
36378;BME280;22402;42.746;23.606;2024-03-07T02:30:11;93223.06;;;6.16;100.00
36378;BME280;22402;42.746;23.606;2024-03-07T02:32:39;93215.28;;;6.16;100.00
36378;BME280;22402;42.746;23.606;2024-03-07T02:35:05;93226.47;;;6.17;100.00
36378;BME280;22402;42.746;23.606;2024-03-07T02:37:30;93233.41;;;6.16;100.00
36378;BME280;22402;42.746;23.606;2024-03-07T02:39:59;93233.28;;;6.18;100.00
36378;BME280;22402;42.746;23.606;2024-03-07T02:42:25;93252.22;;;6.19;100.00
36378;BME280;22402;42.746;23.606;2024-03-07T02:44:50;93255.66;;;6.19;100.00
36378;BME280;22402;42.746;23.606;2024-03-07T02:47:18;93261.63;;;6.20;100.00
36378;BME280;22402;42.746;23.606;2024-03-07T02:49:46;93252.00;;;6.22;100.00
36378;BME280;22402;42.746;23.606;2024-03-07T02:52:11;93250.31;;;6.21;100.00
36378;BME280;22402;42.746;23.606;2024-03-07T02:54:39;93252.09;;;6.20;100.00
36378;BME280;22402;42.746;23.606;2024-03-07T02:57:05;93253.88;;;6.20;100.00
36378;BME280;22402;42.746;23.606;2024-03-07T02:59:30;93244.44;;;6.19;100.00
36378;BME280;22402;42.746;23.606;2024-03-07T03:01:57;93244.69;;;6.15;100.00
36378;BME280;22402;42.746;23.606;2024-03-07T03:04:22;93244.69;;;6.15;100.00
36378;BME280;22402;42.746;23.606;2024-03-07T03:06:47;93241.28;;;6.15;100.00
36378;BME280;22402;42.746;23.606;2024-03-07T03:09:16;93239.06;;;6.10;100.00
36378;BME280;22402;42.746;23.606;2024-03-07T03:11:45;93253.66;;;6.11;100.00
36378;BME280;22402;42.746;23.606;2024-03-07T03:14:14;93245.44;;;6.06;100.00
36378;BME280;22402;42.746;23.606;2024-03-07T03:16:44;93241.44;;;6.02;100.00
36378;BME280;22402;42.746;23.606;2024-03-07T03:19:10;93253.81;;;5.99;100.00
36378;BME280;22402;42.746;23.606;2024-03-07T03:21:36;93250.53;;;5.97;100.00
36378;BME280;22402;42.746;23.606;2024-03-07T03:24:04;93250.75;;;5.93;100.00
36378;BME280;22402;42.746;23.606;2024-03-07T03:26:29;93253.44;;;5.92;100.00
36378;BME280;22402;42.746;23.606;2024-03-07T03:28:59;93257.22;;;5.88;100.00
36378;BME280;22402;42.746;23.606;2024-03-07T03:31:26;93268.75;;;5.84;100.00
36378;BME280;22402;42.746;23.606;2024-03-07T03:33:52;93258.19;;;5.76;100.00
36378;BME280;22402;42.746;23.606;2024-03-07T03:36:17;93269.47;;;5.75;100.00
36378;BME280;22402;42.746;23.606;2024-03-07T03:38:45;93264.78;;;5.68;100.00
36378;BME280;22402;42.746;23.606;2024-03-07T03:41:16;93263.59;;;5.61;100.00
36378;BME280;22402;42.746;23.606;2024-03-07T03:43:42;93258.19;;;5.53;100.00
36378;BME280;22402;42.746;23.606;2024-03-07T03:46:10;93261.97;;;5.49;100.00
36378;BME280;22402;42.746;23.606;2024-03-07T03:48:35;93273.94;;;5.50;100.00
36378;BME280;22402;42.746;23.606;2024-03-07T03:51:01;93262.66;;;5.40;100.00
36378;BME280;22402;42.746;23.606;2024-03-07T03:53:26;93254.34;;;5.36;100.00
36378;BME280;22402;42.746;23.606;2024-03-07T03:55:52;93252.22;;;5.30;100.00
36378;BME280;22402;42.746;23.606;2024-03-07T03:58:17;93243.41;;;5.21;100.00
36378;BME280;22402;42.746;23.606;2024-03-07T04:00:44;93241.53;;;5.23;100.00
36378;BME280;22402;42.746;23.606;2024-03-07T04:03:11;93240.44;;;5.26;100.00
36378;BME280;22402;42.746;23.606;2024-03-07T04:05:37;93247.16;;;5.17;100.00
36378;BME280;22402;42.746;23.606;2024-03-07T04:08:02;93261.94;;;5.04;100.00
36378;BME280;22402;42.746;23.606;2024-03-07T04:10:29;93274.63;;;4.96;100.00
36378;BME280;22402;42.746;23.606;2024-03-07T04:12:57;93285.91;;;4.95;100.00
36378;BME280;22402;42.746;23.606;2024-03-07T04:15:24;93274.63;;;4.96;100.00
36378;BME280;22402;42.746;23.606;2024-03-07T04:17:52;93254.91;;;4.95;100.00
36378;BME280;22402;42.746;23.606;2024-03-07T04:20:17;93246.78;;;4.88;100.00
36378;BME280;22402;42.746;23.606;2024-03-07T04:22:44;93232.56;;;4.83;100.00
36378;BME280;22402;42.746;23.606;2024-03-07T04:25:13;93230.69;;;4.73;100.00
36378;BME280;22402;42.746;23.606;2024-03-07T04:27:39;93232.22;;;4.76;100.00
36378;BME280;22402;42.746;23.606;2024-03-07T04:30:07;93227.13;;;4.63;100.00
36378;BME280;22402;42.746;23.606;2024-03-07T04:32:38;93229.66;;;4.52;100.00
36378;BME280;22402;42.746;23.606;2024-03-07T04:35:05;93229.22;;;4.47;100.00
36378;BME280;22402;42.746;23.606;2024-03-07T04:37:39;93234.69;;;4.42;100.00
36378;BME280;22402;42.746;23.606;2024-03-07T04:40:06;93229.03;;;4.37;100.00
36378;BME280;22402;42.746;23.606;2024-03-07T04:42:43;93242.75;;;4.26;100.00
36378;BME280;22402;42.746;23.606;2024-03-07T04:45:10;93230.97;;;4.22;100.00
36378;BME280;22402;42.746;23.606;2024-03-07T04:47:38;93225.34;;;4.17;100.00
36378;BME280;22402;42.746;23.606;2024-03-07T04:50:04;93230.50;;;4.17;100.00
36378;BME280;22402;42.746;23.606;2024-03-07T04:52:30;93224.53;;;4.17;100.00
36378;BME280;22402;42.746;23.606;2024-03-07T04:54:55;93230.84;;;4.13;100.00
36378;BME280;22402;42.746;23.606;2024-03-07T04:57:20;93230.50;;;4.17;100.00
36378;BME280;22402;42.746;23.606;2024-03-07T04:59:46;93228.25;;;4.13;100.00
36378;BME280;22402;42.746;23.606;2024-03-07T05:02:11;93211.13;;;4.11;100.00
36378;BME280;22402;42.746;23.606;2024-03-07T05:04:37;93225.81;;;4.11;100.00
36378;BME280;22402;42.746;23.606;2024-03-07T05:07:03;93216.88;;;4.15;100.00
36378;BME280;22402;42.746;23.606;2024-03-07T05:09:28;93222.28;;;4.12;100.00
36378;BME280;22402;42.746;23.606;2024-03-07T05:11:54;93237.53;;;4.15;100.00
36378;BME280;22402;42.746;23.606;2024-03-07T05:14:20;93236.50;;;4.18;100.00
36378;BME280;22402;42.746;23.606;2024-03-07T05:16:47;93247.41;;;4.21;100.00
36378;BME280;22402;42.746;23.606;2024-03-07T05:19:32;93235.69;;;4.17;100.00
36378;BME280;22402;42.746;23.606;2024-03-07T05:21:58;93234.41;;;4.23;100.00
36378;BME280;22402;42.746;23.606;2024-03-07T05:24:23;93244.38;;;4.27;100.00
36378;BME280;22402;42.746;23.606;2024-03-07T05:26:49;93238.19;;;4.30;100.00
36378;BME280;22402;42.746;23.606;2024-03-07T05:29:14;93228.66;;;4.30;100.00
36378;BME280;22402;42.746;23.606;2024-03-07T05:31:42;93248.19;;;4.34;100.00
36378;BME280;22402;42.746;23.606;2024-03-07T05:34:17;93245.47;;;4.36;100.00
36378;BME280;22402;42.746;23.606;2024-03-07T05:36:48;93244.19;;;4.42;100.00
36378;BME280;22402;42.746;23.606;2024-03-07T05:39:15;93249.72;;;4.48;100.00
36378;BME280;22402;42.746;23.606;2024-03-07T05:41:43;93251.03;;;4.54;100.00
36378;BME280;22402;42.746;23.606;2024-03-07T05:44:10;93247.78;;;4.63;100.00
36378;BME280;22402;42.746;23.606;2024-03-07T05:46:36;93260.59;;;4.65;100.00
36378;BME280;22402;42.746;23.606;2024-03-07T05:49:09;93257.41;;;4.72;100.00
36378;BME280;22402;42.746;23.606;2024-03-07T05:51:34;93255.31;;;4.77;100.00
36378;BME280;22402;42.746;23.606;2024-03-07T05:54:00;93256.72;;;4.82;100.00
36378;BME280;22402;42.746;23.606;2024-03-07T05:56:25;93260.16;;;4.82;100.00
36378;BME280;22402;42.746;23.606;2024-03-07T05:58:55;93264.38;;;4.83;100.00
36378;BME280;22402;42.746;23.606;2024-03-07T06:01:41;93266.03;;;4.84;100.00
36378;BME280;22402;42.746;23.606;2024-03-07T06:04:06;93265.19;;;4.84;100.00
36378;BME280;22402;42.746;23.606;2024-03-07T06:06:33;93260.84;;;4.84;100.00
36378;BME280;22402;42.746;23.606;2024-03-07T06:09:01;93249.38;;;4.88;100.00
36378;BME280;22402;42.746;23.606;2024-03-07T06:11:27;93256.06;;;4.91;100.00
36378;BME280;22402;42.746;23.606;2024-03-07T06:13:53;93249.00;;;4.93;100.00
36378;BME280;22402;42.746;23.606;2024-03-07T06:16:18;93253.13;;;4.95;100.00
36378;BME280;22402;42.746;23.606;2024-03-07T06:18:45;93261.00;;;5.05;100.00
36378;BME280;22402;42.746;23.606;2024-03-07T06:21:12;93257.72;;;5.03;100.00
36378;BME280;22402;42.746;23.606;2024-03-07T06:23:38;93251.38;;;5.07;100.00
36378;BME280;22402;42.746;23.606;2024-03-07T06:26:04;93255.13;;;5.14;100.00
36378;BME280;22402;42.746;23.606;2024-03-07T06:28:38;93250.34;;;5.21;100.00
36378;BME280;22402;42.746;23.606;2024-03-07T06:31:07;93259.84;;;5.32;100.00
36378;BME280;22402;42.746;23.606;2024-03-07T06:33:35;93261.47;;;5.44;100.00
36378;BME280;22402;42.746;23.606;2024-03-07T06:36:02;93249.59;;;5.53;100.00
36378;BME280;22402;42.746;23.606;2024-03-07T06:38:28;93256.78;;;5.60;100.00
36378;BME280;22402;42.746;23.606;2024-03-07T06:40:53;93257.34;;;5.75;100.00
36378;BME280;22402;42.746;23.606;2024-03-07T06:43:19;93256.97;;;5.91;100.00
36378;BME280;22402;42.746;23.606;2024-03-07T06:45:44;93256.50;;;6.08;100.00
36378;BME280;22402;42.746;23.606;2024-03-07T06:48:11;93267.22;;;6.36;100.00
36378;BME280;22402;42.746;23.606;2024-03-07T06:50:39;93269.41;;;6.52;100.00
36378;BME280;22402;42.746;23.606;2024-03-07T06:53:06;93268.72;;;6.71;100.00
36378;BME280;22402;42.746;23.606;2024-03-07T06:55:35;93278.91;;;7.04;100.00
36378;BME280;22402;42.746;23.606;2024-03-07T06:58:02;93290.66;;;7.29;100.00
36378;BME280;22402;42.746;23.606;2024-03-07T07:00:31;93291.78;;;7.37;100.00
36378;BME280;22402;42.746;23.606;2024-03-07T07:03:02;93310.75;;;7.37;100.00
36378;BME280;22402;42.746;23.606;2024-03-07T07:05:31;93310.44;;;7.30;100.00
36378;BME280;22402;42.746;23.606;2024-03-07T07:07:56;93310.50;;;7.19;100.00
36378;BME280;22402;42.746;23.606;2024-03-07T07:10:22;93309.75;;;7.07;100.00
36378;BME280;22402;42.746;23.606;2024-03-07T07:12:50;93292.75;;;6.94;100.00
36378;BME280;22402;42.746;23.606;2024-03-07T07:15:17;93293.28;;;6.88;100.00
36378;BME280;22402;42.746;23.606;2024-03-07T07:17:44;93290.06;;;6.84;100.00
36378;BME280;22402;42.746;23.606;2024-03-07T07:20:17;93296.69;;;6.88;100.00
36378;BME280;22402;42.746;23.606;2024-03-07T07:22:45;93313.25;;;6.97;100.00
36378;BME280;22402;42.746;23.606;2024-03-07T07:25:16;93316.16;;;7.03;100.00
36378;BME280;22402;42.746;23.606;2024-03-07T07:27:54;93317.09;;;7.02;100.00
36378;BME280;22402;42.746;23.606;2024-03-07T07:30:21;93313.09;;;6.98;100.00
36378;BME280;22402;42.746;23.606;2024-03-07T07:32:53;93318.13;;;6.90;100.00
36378;BME280;22402;42.746;23.606;2024-03-07T07:35:21;93310.34;;;6.90;100.00
36378;BME280;22402;42.746;23.606;2024-03-07T07:37:48;93304.69;;;6.85;100.00
36378;BME280;22402;42.746;23.606;2024-03-07T07:40:19;93305.88;;;6.81;100.00
36378;BME280;22402;42.746;23.606;2024-03-07T07:42:45;93292.50;;;6.76;100.00
36378;BME280;22402;42.746;23.606;2024-03-07T07:45:13;93282.25;;;6.74;100.00
36378;BME280;22402;42.746;23.606;2024-03-07T07:47:40;93279.66;;;6.74;100.00
36378;BME280;22402;42.746;23.606;2024-03-07T07:50:12;93282.56;;;6.81;100.00
36378;BME280;22402;42.746;23.606;2024-03-07T07:52:51;93290.53;;;6.89;100.00
36378;BME280;22402;42.746;23.606;2024-03-07T07:55:19;93289.47;;;6.92;100.00
36378;BME280;22402;42.746;23.606;2024-03-07T07:57:50;93295.47;;;6.92;100.00
36378;BME280;22402;42.746;23.606;2024-03-07T08:00:26;93297.13;;;6.93;100.00
36378;BME280;22402;42.746;23.606;2024-03-07T08:02:55;93309.38;;;6.91;100.00
36378;BME280;22402;42.746;23.606;2024-03-07T08:05:26;93313.28;;;6.85;100.00
36378;BME280;22402;42.746;23.606;2024-03-07T08:07:55;93310.38;;;6.79;100.00
36378;BME280;22402;42.746;23.606;2024-03-07T08:10:21;93308.16;;;6.74;100.00
36378;BME280;22402;42.746;23.606;2024-03-07T08:12:48;93303.78;;;6.75;100.00
36378;BME280;22402;42.746;23.606;2024-03-07T08:15:14;93290.47;;;6.79;100.00
36378;BME280;22402;42.746;23.606;2024-03-07T08:17:44;93292.44;;;6.87;100.00
36378;BME280;22402;42.746;23.606;2024-03-07T08:20:14;93298.75;;;6.94;100.00
36378;BME280;22402;42.746;23.606;2024-03-07T08:22:42;93292.31;;;7.10;100.00
36378;BME280;22402;42.746;23.606;2024-03-07T08:25:14;93299.00;;;7.33;100.00
36378;BME280;22402;42.746;23.606;2024-03-07T08:27:42;93296.25;;;7.56;100.00
36378;BME280;22402;42.746;23.606;2024-03-07T08:30:09;93287.16;;;7.71;100.00
36378;BME280;22402;42.746;23.606;2024-03-07T08:32:44;93283.69;;;7.91;100.00
36378;BME280;22402;42.746;23.606;2024-03-07T08:35:10;93286.31;;;8.11;100.00
36378;BME280;22402;42.746;23.606;2024-03-07T08:37:42;93287.03;;;8.32;100.00
36378;BME280;22402;42.746;23.606;2024-03-07T08:40:09;93285.19;;;8.54;100.00
36378;BME280;22402;42.746;23.606;2024-03-07T08:42:46;93295.03;;;8.79;100.00
36378;BME280;22402;42.746;23.606;2024-03-07T08:45:12;93304.88;;;9.05;99.57
36378;BME280;22402;42.746;23.606;2024-03-07T08:47:43;93311.81;;;9.33;98.49
36378;BME280;22402;42.746;23.606;2024-03-07T08:50:09;93309.44;;;9.50;96.22
36378;BME280;22402;42.746;23.606;2024-03-07T08:52:35;93313.66;;;9.70;95.46
36378;BME280;22402;42.746;23.606;2024-03-07T08:55:02;93311.53;;;9.84;92.82
36378;BME280;22402;42.746;23.606;2024-03-07T08:57:28;93325.19;;;9.95;91.87
36378;BME280;22402;42.746;23.606;2024-03-07T08:59:54;93325.72;;;9.99;90.36
36378;BME280;22402;42.746;23.606;2024-03-07T09:02:20;93329.19;;;9.90;89.44
36378;BME280;22402;42.746;23.606;2024-03-07T09:04:45;93325.53;;;9.82;90.13
36378;BME280;22402;42.746;23.606;2024-03-07T09:07:11;93325.22;;;9.86;89.77
36378;BME280;22402;42.746;23.606;2024-03-07T09:09:40;93326.22;;;9.85;89.32
36378;BME280;22402;42.746;23.606;2024-03-07T09:12:08;93321.00;;;9.85;90.75
36378;BME280;22402;42.746;23.606;2024-03-07T09:14:34;93319.63;;;10.08;91.33
36378;BME280;22402;42.746;23.606;2024-03-07T09:17:01;93327.66;;;10.52;86.56
36378;BME280;22402;42.746;23.606;2024-03-07T09:19:26;93325.53;;;10.65;85.79
36378;BME280;22402;42.746;23.606;2024-03-07T09:21:53;93328.97;;;10.84;84.07
36378;BME280;22402;42.746;23.606;2024-03-07T09:24:20;93324.16;;;10.89;83.58
36378;BME280;22402;42.746;23.606;2024-03-07T09:26:51;93329.75;;;11.38;86.74
36378;BME280;22402;42.746;23.606;2024-03-07T09:29:22;93332.84;;;12.12;83.94
36378;BME280;22402;42.746;23.606;2024-03-07T09:31:51;93330.16;;;12.80;78.88
36378;BME280;22402;42.746;23.606;2024-03-07T09:34:20;93325.13;;;13.19;75.87
36378;BME280;22402;42.746;23.606;2024-03-07T09:36:52;93317.66;;;13.33;75.43
36378;BME280;22402;42.746;23.606;2024-03-07T09:39:18;93315.34;;;13.46;75.12
36378;BME280;22402;42.746;23.606;2024-03-07T09:41:44;93323.00;;;13.56;73.45
36378;BME280;22402;42.746;23.606;2024-03-07T09:44:09;93317.47;;;13.42;72.44
36378;BME280;22402;42.746;23.606;2024-03-07T09:46:38;93321.69;;;13.19;73.62
36378;BME280;22402;42.746;23.606;2024-03-07T09:49:04;93322.00;;;12.99;73.57
36378;BME280;22402;42.746;23.606;2024-03-07T09:51:31;93331.13;;;12.79;74.76
36378;BME280;22402;42.746;23.606;2024-03-07T09:53:58;93333.69;;;12.63;74.96
36378;BME280;22402;42.746;23.606;2024-03-07T09:56:30;93339.53;;;12.48;75.39
36378;BME280;22402;42.746;23.606;2024-03-07T09:59:03;93322.97;;;12.31;75.76
36378;BME280;22402;42.746;23.606;2024-03-07T10:01:30;93329.25;;;12.13;76.15
36378;BME280;22402;42.746;23.606;2024-03-07T10:03:59;93321.13;;;11.90;77.14
36378;BME280;22402;42.746;23.606;2024-03-07T10:06:39;93324.69;;;11.62;77.07
36378;BME280;22402;42.746;23.606;2024-03-07T10:09:05;93323.94;;;11.44;79.23
36378;BME280;22402;42.746;23.606;2024-03-07T10:11:35;93320.00;;;11.40;80.92
36378;BME280;22402;42.746;23.606;2024-03-07T10:14:01;93315.50;;;11.32;80.22
36378;BME280;22402;42.746;23.606;2024-03-07T10:16:31;93310.69;;;11.20;79.55
36378;BME280;22402;42.746;23.606;2024-03-07T10:18:58;93312.22;;;11.04;79.96
36378;BME280;22402;42.746;23.606;2024-03-07T10:21:26;93310.94;;;10.90;81.56
36378;BME280;22402;42.746;23.606;2024-03-07T10:24:06;93307.13;;;10.85;82.57
36378;BME280;22402;42.746;23.606;2024-03-07T10:26:36;93306.31;;;10.84;82.08
36378;BME280;22402;42.746;23.606;2024-03-07T10:29:09;93305.28;;;10.77;83.38
36378;BME280;22402;42.746;23.606;2024-03-07T10:31:35;93312.50;;;10.65;82.45
36378;BME280;22402;42.746;23.606;2024-03-07T10:34:03;93300.03;;;10.41;83.07
36378;BME280;22402;42.746;23.606;2024-03-07T10:36:30;93303.94;;;10.27;84.21
36378;BME280;22402;42.746;23.606;2024-03-07T10:38:59;93307.53;;;10.17;85.79
36378;BME280;22402;42.746;23.606;2024-03-07T10:41:28;93298.50;;;10.11;86.55
36378;BME280;22402;42.746;23.606;2024-03-07T10:43:59;93306.25;;;10.03;87.28
36378;BME280;22402;42.746;23.606;2024-03-07T10:46:27;93306.84;;;9.87;86.42
36378;BME280;22402;42.746;23.606;2024-03-07T10:48:57;93303.34;;;9.69;87.33
36378;BME280;22402;42.746;23.606;2024-03-07T10:51:32;93311.63;;;9.54;87.69
36378;BME280;22402;42.746;23.606;2024-03-07T10:59:38;93307.41;;;9.44;88.65
36378;BME280;22402;42.746;23.606;2024-03-07T11:02:37;93303.72;;;9.46;88.69
36378;BME280;22402;42.746;23.606;2024-03-07T11:05:12;93300.53;;;9.52;87.38
36378;BME280;22402;42.746;23.606;2024-03-07T11:07:41;93303.69;;;9.56;88.34
36378;BME280;22402;42.746;23.606;2024-03-07T11:10:07;93292.41;;;9.65;88.59
36378;BME280;22402;42.746;23.606;2024-03-07T11:12:38;93280.38;;;9.64;87.96
36378;BME280;22402;42.746;23.606;2024-03-07T11:15:05;93286.53;;;9.63;87.63
36378;BME280;22402;42.746;23.606;2024-03-07T11:17:32;93275.44;;;9.61;88.79
36378;BME280;22402;42.746;23.606;2024-03-07T11:20:20;93285.28;;;9.67;89.46
36378;BME280;22402;42.746;23.606;2024-03-07T11:22:46;93288.81;;;9.76;88.18
36378;BME280;22402;42.746;23.606;2024-03-07T11:25:12;93294.84;;;9.76;87.16
36378;BME280;22402;42.746;23.606;2024-03-07T11:27:38;93297.00;;;9.81;88.63
36378;BME280;22402;42.746;23.606;2024-03-07T11:30:08;93298.09;;;9.88;87.75
36378;BME280;22402;42.746;23.606;2024-03-07T11:32:43;93289.81;;;9.93;87.21
36378;BME280;22402;42.746;23.606;2024-03-07T11:35:31;93292.84;;;9.98;86.30
36378;BME280;22402;42.746;23.606;2024-03-07T11:37:58;93296.41;;;9.97;87.14
36378;BME280;22402;42.746;23.606;2024-03-07T11:42:52;93282.41;;;9.98;85.68
36378;BME280;22402;42.746;23.606;2024-03-07T11:45:18;93289.25;;;9.99;86.92
36378;BME280;22402;42.746;23.606;2024-03-07T11:47:57;93284.31;;;10.06;86.35
36378;BME280;22402;42.746;23.606;2024-03-07T11:50:33;93283.03;;;10.10;85.78
36378;BME280;22402;42.746;23.606;2024-03-07T11:53:02;93272.47;;;10.11;85.43
36378;BME280;22402;42.746;23.606;2024-03-07T11:55:31;93280.97;;;10.13;86.43
36378;BME280;22402;42.746;23.606;2024-03-07T11:58:14;93272.19;;;10.14;82.30
36378;BME280;22402;42.746;23.606;2024-03-07T12:00:43;93271.56;;;10.02;83.76
36378;BME280;22402;42.746;23.606;2024-03-07T12:03:17;93269.00;;;9.93;84.67
36378;BME280;22402;42.746;23.606;2024-03-07T12:05:44;93270.66;;;9.94;84.37
36378;BME280;22402;42.746;23.606;2024-03-07T12:08:11;93278.19;;;9.87;84.31
36378;BME280;22402;42.746;23.606;2024-03-07T12:10:40;93269.56;;;9.87;84.91
36378;BME280;22402;42.746;23.606;2024-03-07T12:13:14;93275.66;;;9.77;85.93
36378;BME280;22402;42.746;23.606;2024-03-07T12:15:45;93275.25;;;9.72;86.12
36378;BME280;22402;42.746;23.606;2024-03-07T12:18:11;93269.00;;;9.65;86.62
36378;BME280;22402;42.746;23.606;2024-03-07T12:20:42;93270.53;;;9.58;87.27
36378;BME280;22402;42.746;23.606;2024-03-07T12:23:12;93266.97;;;9.59;86.38
36378;BME280;22402;42.746;23.606;2024-03-07T12:25:38;93276.41;;;9.60;86.89
36378;BME280;22402;42.746;23.606;2024-03-07T12:28:09;93265.84;;;9.62;86.93
36378;BME280;22402;42.746;23.606;2024-03-07T12:33:13;93276.56;;;9.58;87.71
36378;BME280;22402;42.746;23.606;2024-03-07T12:35:43;93262.16;;;9.64;88.77
36378;BME280;22402;42.746;23.606;2024-03-07T12:38:09;93258.69;;;9.73;86.58
36378;BME280;22402;42.746;23.606;2024-03-07T12:40:37;93257.31;;;9.69;86.88
36378;BME280;22402;42.746;23.606;2024-03-07T12:43:18;93265.81;;;9.71;87.19
36378;BME280;22402;42.746;23.606;2024-03-07T12:45:51;93257.31;;;9.69;86.83
36378;BME280;22402;42.746;23.606;2024-03-07T12:48:18;93259.84;;;9.61;87.92
36378;BME280;22402;42.746;23.606;2024-03-07T12:50:48;93256.53;;;9.59;87.79
36378;BME280;22402;42.746;23.606;2024-03-07T12:53:22;93267.81;;;9.50;87.69
36378;BME280;22402;42.746;23.606;2024-03-07T12:55:50;93260.69;;;9.42;87.88
36378;BME280;22402;42.746;23.606;2024-03-07T12:58:17;93259.63;;;9.35;89.13
36378;BME280;22402;42.746;23.606;2024-03-07T13:00:44;93265.09;;;9.42;88.75
36378;BME280;22402;42.746;23.606;2024-03-07T13:03:10;93272.50;;;9.36;88.56
36378;BME280;22402;42.746;23.606;2024-03-07T13:05:38;93265.66;;;9.35;88.32
36378;BME280;22402;42.746;23.606;2024-03-07T13:08:08;93265.66;;;9.35;88.40